Time;durP1;ratioP1;P1;durP2;ratioP2;P2;SDS_P1;SDS_P2;PMS_P1;PMS_P2;Temp;Humidity;BMP_temperature;BMP_pressure;BME280_temperature;BME280_humidity;BME280_pressure;Samples;Min_cycle;Max_cycle;Signal;HPM_P1;HPM_P2
2023/03/16 01:28:23;;;;;;;;;;;;;;;;;;4953949;28;19929;-61
2023/03/16 01:30:48;;;;;;;;;;;;;;;;;;4935785;28;20352;-61
2023/03/16 01:33:16;;;;;;;;;;;;;;;;;;4941628;28;19922;-63
2023/03/16 01:35:41;;;;;;;;;;;;;;;;;;4955169;28;19921;-61
2023/03/16 01:38:09;;;;;;;;;;;;;;;;;;4969151;28;20358;-62
2023/03/16 01:40:36;;;;;;;;;;;;;;;;;;4955538;28;20552;-63
2023/03/16 01:43:04;;;;;;;;;;;;;;;;;;4970821;28;19918;-61
2023/03/16 01:45:33;;;;;;;;;;;;;;;;;;4957922;28;19930;-62
2023/03/16 01:47:58;;;;;;;;;;;;;;;;;;4953658;28;19949;-61
2023/03/16 01:50:26;;;;;;;;;;;;;;;;;;4938624;28;20430;-62
2023/03/16 01:52:51;;;;;;;;;;;;;;;;;;4969880;28;19922;-62
2023/03/16 01:55:19;;;;;;;;;;;;;;;;;;4953866;28;20246;-61
2023/03/16 01:57:45;;;;;;;;;;;;;;;;;;4958708;28;20041;-61
2023/03/16 02:00:13;;;;;;;;;;;;;;;;;;4967923;28;20005;-61
2023/03/16 02:02:42;;;;;;;;;;;;;;;;;;4939344;28;20086;-62
2023/03/16 02:05:07;;;;;;;;;;;;;;;;;;4958121;28;20345;-62
2023/03/16 02:07:33;;;;;;;;;;;;;;;;;;4969457;28;19917;-62
2023/03/16 02:09:58;;;;;;;;;;;;;;;;;;4938177;28;19972;-62
2023/03/16 02:12:26;;;;;;;;;;;;;;;;;;4969142;28;19965;-61
2023/03/16 02:14:51;;;;;;;;;;;;;;;;;;4969530;28;20298;-61
2023/03/16 02:17:17;;;;;;;;;;;;;;;;;;4955545;28;19996;-61
2023/03/16 02:19:42;;;;;;;;;;;;;;;;;;4934184;28;19922;-61
2023/03/16 02:22:10;;;;;;;;;;;;;;;;;;4966017;28;19922;-62
2023/03/16 02:24:35;;;;;;;;;;;;;;;;;;4968781;28;19918;-62
2023/03/16 02:27:03;;;;;;;;;;;;;;;;;;4950682;28;20432;-61
2023/03/16 02:29:31;;;;;;;;;;;;;;;;;;4967956;28;19976;-61
2023/03/16 02:31:56;;;;;;;;;;;;;;;;;;4970270;28;20299;-63
2023/03/16 02:34:21;;;;;;;;;;;;;;;;;;4965815;28;20265;-63
2023/03/16 02:36:47;;;;;;;;;;;;;;;;;;4955559;28;20445;-62
2023/03/16 02:39:12;;;;;;;;;;;;;;;;;;4925868;28;19958;-62
2023/03/16 02:41:38;;;;;;;;;;;;;;;;;;4956106;28;19932;-62
2023/03/16 02:44:03;;;;;;;;;;;;;;;;;;4969100;28;19922;-61
2023/03/16 02:46:28;;;;;;;;;;;;;;;;;;4939368;28;20337;-62
2023/03/16 02:48:54;;;;;;;;;;;;;;;;;;4968836;28;20385;-61
2023/03/16 02:51:21;;;;;;;;;;;;;;;;;;4973347;28;19953;-62
2023/03/16 02:53:47;;;;;;;;;;;;;;;;;;4956170;28;20000;-62
2023/03/16 02:56:12;;;;;;;;;;;;;;;;;;4971509;28;20579;-62
2023/03/16 02:58:37;;;;;;;;;;;;;;;;;;4973606;28;20427;-62
2023/03/16 03:01:07;;;;;;;;;;;;;;;;;;4972039;28;19918;-63
2023/03/16 03:03:38;;;;;;;;;;;;;;;;;;4960911;28;20021;-61
2023/03/16 03:06:07;;;;;;;;;;;;;;;;;;4956540;28;19928;-63
2023/03/16 03:08:32;;;;;;;;;;;;;;;;;;4956433;28;20585;-63
2023/03/16 03:10:57;;;;;;;;;;;;;;;;;;4957345;28;19930;-62
2023/03/16 03:13:23;;;;;;;;;;;;;;;;;;4972498;28;20873;-62
2023/03/16 03:15:48;;;;;;;;;;;;;;;;;;4958922;28;20500;-64
2023/03/16 03:18:16;;;;;;;;;;;;;;;;;;4958261;28;19925;-61
2023/03/16 03:20:44;;;;;;;;;;;;;;;;;;4943313;28;20012;-62
2023/03/16 03:23:15;;;;;;;;;;;;;;;;;;4956526;28;20089;-62
2023/03/16 03:25:44;;;;;;;;;;;;;;;;;;4969914;28;19980;-62
2023/03/16 03:28:11;;;;;;;;;;;;;;;;;;4972271;28;19953;-63
2023/03/16 03:30:36;;;;;;;;;;;;;;;;;;4940819;28;21961;-62
2023/03/16 03:33:02;;;;;;;;;;;;;;;;;;4961037;28;19918;-63
2023/03/16 03:35:27;;;;;;;;;;;;;;;;;;4944021;28;20483;-63
2023/03/16 03:37:58;;;;;;;;;;;;;;;;;;4968708;28;20319;-63
2023/03/16 03:40:26;;;;;;;;;;;;;;;;;;4952957;28;20021;-63
2023/03/16 03:42:51;;;;;;;;;;;;;;;;;;4926775;28;19933;-63
2023/03/16 03:45:18;;;;;;;;;;;;;;;;;;4955653;28;23446;-62
2023/03/16 03:47:43;;;;;;;;;;;;;;;;;;4969623;28;20019;-62
2023/03/16 03:50:09;;;;;;;;;;;;;;;;;;4955473;28;19917;-62
2023/03/16 03:52:34;;;;;;;;;;;;;;;;;;4956534;28;20271;-62
2023/03/16 03:54:59;;;;;;;;;;;;;;;;;;4970213;28;19981;-62
2023/03/16 03:57:25;;;;;;;;;;;;;;;;;;4971196;28;19934;-63
2023/03/16 03:59:50;;;;;;;;;;;;;;;;;;4970653;28;19922;-62
2023/03/16 04:02:15;;;;;;;;;;;;;;;;;;4941102;28;19918;-61
2023/03/16 04:04:40;;;;;;;;;;;;;;;;;;4955532;28;20453;-61
2023/03/16 04:07:10;;;;;;;;;;;;;;;;;;4957888;28;19972;-63
2023/03/16 04:09:36;;;;;;;;;;;;;;;;;;4970341;28;20566;-63
2023/03/16 04:12:01;;;;;;;;;;;;;;;;;;4956375;28;19926;-62
2023/03/16 04:14:26;;;;;;;;;;;;;;;;;;4955848;28;19929;-63
2023/03/16 04:16:53;;;;;;;;;;;;;;;;;;4955407;28;20499;-63
2023/03/16 04:19:21;;;;;;;;;;;;;;;;;;4954777;28;20585;-62
2023/03/16 04:21:46;;;;;;;;;;;;;;;;;;4970527;28;19929;-62
2023/03/16 04:24:14;;;;;;;;;;;;;;;;;;4943174;28;19922;-62
2023/03/16 04:26:39;;;;;;;;;;;;;;;;;;4956268;28;19976;-62
2023/03/16 04:29:07;;;;;;;;;;;;;;;;;;4970173;28;20605;-63
2023/03/16 04:31:32;;;;;;;;;;;;;;;;;;4954287;28;20047;-64
2023/03/16 04:33:57;;;;;;;;;;;;;;;;;;4955360;28;20381;-63
2023/03/16 04:36:25;;;;;;;;;;;;;;;;;;4956109;28;20397;-62
2023/03/16 04:38:53;;;;;;;;;;;;;;;;;;4942438;28;19918;-62
2023/03/16 04:41:19;;;;;;;;;;;;;;;;;;4944033;28;20004;-63
2023/03/16 04:43:44;;;;;;;;;;;;;;;;;;4968085;28;19924;-64
2023/03/16 04:46:09;;;;;;;;;;;;;;;;;;4957425;28;19929;-65
2023/03/16 04:48:35;;;;;;;;;;;;;;;;;;4969466;28;20377;-62
2023/03/16 04:51:02;;;;;;;;;;;;;;;;;;4930126;28;20685;-62
2023/03/16 04:53:27;;;;;;;;;;;;;;;;;;4968156;28;19961;-66
2023/03/16 04:55:53;;;;;;;;;;;;;;;;;;4958183;28;20067;-63
2023/03/16 04:58:21;;;;;;;;;;;;;;;;;;4955209;28;19930;-62
2023/03/16 05:00:49;;;;;;;;;;;;;;;;;;4956431;28;19999;-62
2023/03/16 05:03:15;;;;;;;;;;;;;;;;;;4945010;28;20455;-63
2023/03/16 05:05:44;;;;;;;;;;;;;;;;;;4955281;28;20585;-63
2023/03/16 05:08:09;;;;;;;;;;;;;;;;;;4970624;28;19957;-63
2023/03/16 05:10:35;;;;;;;;;;;;;;;;;;4965370;28;20045;-62
2023/03/16 05:13:00;;;;;;;;;;;;;;;;;;4954993;28;19918;-62
2023/03/16 05:15:28;;;;;;;;;;;;;;;;;;4956283;28;19925;-62
2023/03/16 05:17:54;;;;;;;;;;;;;;;;;;4970983;28;19922;-64
2023/03/16 05:20:20;;;;;;;;;;;;;;;;;;4969422;28;19918;-63
2023/03/16 05:22:51;;;;;;;;;;;;;;;;;;4970096;28;19928;-63
2023/03/16 05:25:19;;;;;;;;;;;;;;;;;;4954063;28;19953;-63
2023/03/16 05:27:47;;;;;;;;;;;;;;;;;;4970646;28;20004;-61
2023/03/16 05:30:15;;;;;;;;;;;;;;;;;;4951842;28;20028;-62
2023/03/16 05:32:40;;;;;;;;;;;;;;;;;;4953511;28;20549;-62
2023/03/16 05:35:06;;;;;;;;;;;;;;;;;;4952479;28;19928;-65
2023/03/16 05:37:31;;;;;;;;;;;;;;;;;;4952850;28;20410;-62
2023/03/16 05:40:00;;;;;;;;;;;;;;;;;;4953400;28;19941;-62
2023/03/16 05:42:28;;;;;;;;;;;;;;;;;;4951579;28;19924;-62
2023/03/16 05:44:56;;;;;;;;;;;;;;;;;;4946633;28;19941;-62
2023/03/16 05:47:21;;;;;;;;;;;;;;;;;;4933637;28;19922;-62
2023/03/16 05:49:50;;;;;;;;;;;;;;;;;;4949847;28;19925;-63
2023/03/16 05:52:15;;;;;;;;;;;;;;;;;;4922470;28;19926;-62
2023/03/16 05:54:43;;;;;;;;;;;;;;;;;;4935944;28;20012;-62
2023/03/16 05:57:08;;;;;;;;;;;;;;;;;;4943621;28;19922;-62
2023/03/16 05:59:33;;;;;;;;;;;;;;;;;;4934511;28;20404;-62
2023/03/16 06:01:58;;;;;;;;;;;;;;;;;;4934256;28;20005;-63
2023/03/16 06:04:26;;;;;;;;;;;;;;;;;;4932828;28;19918;-61
2023/03/16 06:06:54;;;;;;;;;;;;;;;;;;4965186;28;19945;-63
2023/03/16 06:09:22;;;;;;;;;;;;;;;;;;4937679;28;19954;-61
2023/03/16 06:11:50;;;;;;;;;;;;;;;;;;4967173;28;19991;-62
2023/03/16 06:14:15;;;;;;;;;;;;;;;;;;4967292;28;19918;-62
2023/03/16 06:16:43;;;;;;;;;;;;;;;;;;4937494;28;19965;-62
2023/03/16 06:19:10;;;;;;;;;;;;;;;;;;4946592;28;19921;-62
2023/03/16 06:21:36;;;;;;;;;;;;;;;;;;4933959;28;20001;-63
2023/03/16 06:24:01;;;;;;;;;;;;;;;;;;4941969;28;19922;-63
2023/03/16 06:26:26;;;;;;;;;;;;;;;;;;4939677;28;19929;-63
2023/03/16 06:28:52;;;;;;;;;;;;;;;;;;4940727;28;19926;-65
2023/03/16 06:31:17;;;;;;;;;;;;;;;;;;4953541;28;19926;-63
2023/03/16 06:33:42;;;;;;;;;;;;;;;;;;4952142;28;19918;-64
2023/03/16 06:36:08;;;;;;;;;;;;;;;;;;4927269;28;20028;-63
2023/03/16 06:38:33;;;;;;;;;;;;;;;;;;4935914;28;20177;-63
2023/03/16 06:40:59;;;;;;;;;;;;;;;;;;4938370;28;19922;-64
2023/03/16 06:43:24;;;;;;;;;;;;;;;;;;4938712;28;19922;-63
2023/03/16 06:45:52;;;;;;;;;;;;;;;;;;4969467;28;20550;-62
2023/03/16 06:48:20;;;;;;;;;;;;;;;;;;4970299;28;20253;-62
2023/03/16 06:50:48;;;;;;;;;;;;;;;;;;4944455;28;19927;-62
2023/03/16 06:53:13;;;;;;;;;;;;;;;;;;4969527;28;19938;-62
2023/03/16 06:55:39;;;;;;;;;;;;;;;;;;4936703;28;19922;-61
2023/03/16 06:58:04;;;;;;;;;;;;;;;;;;4961657;28;20403;-62
2023/03/16 07:00:30;;;;;;;;;;;;;;;;;;4939301;28;20376;-63
2023/03/16 07:02:56;;;;;;;;;;;;;;;;;;4969116;28;20003;-63
2023/03/16 07:05:21;;;;;;;;;;;;;;;;;;4967798;28;20451;-62
2023/03/16 07:07:47;;;;;;;;;;;;;;;;;;4967613;28;19922;-62
2023/03/16 07:10:16;;;;;;;;;;;;;;;;;;4939293;28;20017;-64
2023/03/16 07:12:41;;;;;;;;;;;;;;;;;;4936512;28;19958;-63
2023/03/16 07:15:07;;;;;;;;;;;;;;;;;;4968939;28;20015;-61
2023/03/16 07:17:32;;;;;;;;;;;;;;;;;;4969203;28;19918;-63
2023/03/16 07:19:57;;;;;;;;;;;;;;;;;;4930661;28;19922;-62
2023/03/16 07:22:22;;;;;;;;;;;;;;;;;;4969970;28;20314;-63
2023/03/16 07:24:56;;;;;;;;;;;;;;;;;;4934599;28;19919;-63
2023/03/16 07:27:22;;;;;;;;;;;;;;;;;;4966320;28;19989;-62
2023/03/16 07:29:47;;;;;;;;;;;;;;;;;;4940860;28;19926;-64
2023/03/16 07:32:13;;;;;;;;;;;;;;;;;;4939143;28;20983;-62
2023/03/16 07:34:38;;;;;;;;;;;;;;;;;;4933119;28;20382;-63
2023/03/16 07:37:04;;;;;;;;;;;;;;;;;;4966552;28;20338;-62
2023/03/16 07:39:29;;;;;;;;;;;;;;;;;;4935561;28;19922;-63
2023/03/16 07:41:54;;;;;;;;;;;;;;;;;;4955376;28;19929;-62
2023/03/16 07:44:20;;;;;;;;;;;;;;;;;;4940111;28;19922;-63
2023/03/16 07:46:50;;;;;;;;;;;;;;;;;;4950545;28;20000;-64
2023/03/16 07:49:19;;;;;;;;;;;;;;;;;;4936670;28;19972;-63
2023/03/16 07:51:44;;;;;;;;;;;;;;;;;;4969772;28;19925;-62
2023/03/16 07:54:09;;;;;;;;;;;;;;;;;;4937638;28;19918;-61
2023/03/16 07:56:35;;;;;;;;;;;;;;;;;;4929433;28;19922;-61
2023/03/16 07:59:00;;;;;;;;;;;;;;;;;;4944771;28;20849;-62
2023/03/16 08:01:26;;;;;;;;;;;;;;;;;;4939542;28;20596;-63
2023/03/16 08:03:52;;;;;;;;;;;;;;;;;;4966992;28;20130;-62
2023/03/16 08:06:17;;;;;;;;;;;;;;;;;;4953237;28;19918;-63
2023/03/16 08:08:43;;;;;;;;;;;;;;;;;;4954079;28;20279;-62
2023/03/16 08:11:08;;;;;;;;;;;;;;;;;;4957396;28;20024;-63
2023/03/16 08:13:34;;;;;;;;;;;;;;;;;;4951406;28;19926;-63
2023/03/16 08:16:00;;;;;;;;;;;;;;;;;;4955645;28;20768;-62
2023/03/16 08:18:26;;;;;;;;;;;;;;;;;;4969476;28;19922;-63
2023/03/16 08:20:54;;;;;;;;;;;;;;;;;;4953936;28;19930;-64
2023/03/16 08:23:20;;;;;;;;;;;;;;;;;;4952183;28;20349;-63
2023/03/16 08:25:45;;;;;;;;;;;;;;;;;;4952179;28;19922;-62
2023/03/16 08:28:11;;;;;;;;;;;;;;;;;;4968134;28;19918;-63
2023/03/16 08:30:36;;;;;;;;;;;;;;;;;;4935740;28;21437;-64
2023/03/16 08:33:05;;;;;;;;;;;;;;;;;;4942920;28;19922;-63
2023/03/16 08:35:30;;;;;;;;;;;;;;;;;;4968055;28;19921;-64
2023/03/16 08:37:56;;;;;;;;;;;;;;;;;;4968999;28;19918;-62
2023/03/16 08:40:21;;;;;;;;;;;;;;;;;;4954179;28;19922;-64
2023/03/16 08:42:48;;;;;;;;;;;;;;;;;;4959891;28;19953;-62
2023/03/16 08:45:14;;;;;;;;;;;;;;;;;;4930718;28;20609;-62
2023/03/16 08:47:39;;;;;;;;;;;;;;;;;;4925051;28;19977;-62
2023/03/16 08:50:05;;;;;;;;;;;;;;;;;;4937942;28;19944;-63
2023/03/16 08:52:33;;;;;;;;;;;;;;;;;;4933064;28;20009;-62
2023/03/16 08:54:58;;;;;;;;;;;;;;;;;;4933463;28;20531;-63
2023/03/16 08:57:23;;;;;;;;;;;;;;;;;;4930757;28;19919;-62
2023/03/16 08:59:49;;;;;;;;;;;;;;;;;;4933329;28;19980;-62
2023/03/16 09:02:15;;;;;;;;;;;;;;;;;;4948563;28;19919;-61
2023/03/16 09:04:40;;;;;;;;;;;;;;;;;;4936767;28;19985;-63
2023/03/16 09:07:08;;;;;;;;;;;;;;;;;;4935077;28;19929;-63
2023/03/16 09:09:34;;;;;;;;;;;;;;;;;;4966904;28;19919;-63
2023/03/16 09:11:59;;;;;;;;;;;;;;;;;;4966320;28;20513;-63
2023/03/16 09:14:27;;;;;;;;;;;;;;;;;;4936101;28;19918;-62
2023/03/16 09:16:53;;;;;;;;;;;;;;;;;;4936202;28;20008;-63
2023/03/16 09:19:20;;;;;;;;;;;;;;;;;;4934611;28;20370;-63
2023/03/16 09:21:45;;;;;;;;;;;;;;;;;;4967679;28;19923;-63
2023/03/16 09:24:13;;;;;;;;;;;;;;;;;;4935425;28;19982;-62
2023/03/16 09:26:38;;;;;;;;;;;;;;;;;;4949994;28;19928;-62
2023/03/16 09:29:05;;;;;;;;;;;;;;;;;;4933754;28;19918;-64
2023/03/16 09:31:31;;;;;;;;;;;;;;;;;;4967576;28;19977;-63
2023/03/16 09:33:56;;;;;;;;;;;;;;;;;;4937637;28;20437;-64
2023/03/16 09:36:21;;;;;;;;;;;;;;;;;;4949169;28;19984;-65
2023/03/16 09:38:47;;;;;;;;;;;;;;;;;;4933746;28;19925;-62
2023/03/16 09:41:12;;;;;;;;;;;;;;;;;;4966488;28;19923;-63
2023/03/16 09:43:38;;;;;;;;;;;;;;;;;;4932320;28;20072;-63
2023/03/16 09:46:05;;;;;;;;;;;;;;;;;;4967129;28;19986;-65
2023/03/16 09:48:30;;;;;;;;;;;;;;;;;;4962386;28;21969;-63
2023/03/16 09:50:55;;;;;;;;;;;;;;;;;;4962118;28;19922;-65
2023/03/16 09:53:21;;;;;;;;;;;;;;;;;;4931938;28;20868;-64
2023/03/16 09:55:47;;;;;;;;;;;;;;;;;;4962727;28;19922;-65
2023/03/16 09:58:12;;;;;;;;;;;;;;;;;;4938564;28;20025;-63
2023/03/16 10:00:38;;;;;;;;;;;;;;;;;;4965549;28;20646;-64
2023/03/16 10:03:03;;;;;;;;;;;;;;;;;;4926604;28;20657;-64
2023/03/16 10:05:29;;;;;;;;;;;;;;;;;;4967213;28;19996;-66
2023/03/16 10:07:55;;;;;;;;;;;;;;;;;;4937189;28;20405;-63
2023/03/16 10:10:22;;;;;;;;;;;;;;;;;;4970682;28;19919;-62
2023/03/16 10:12:49;;;;;;;;;;;;;;;;;;4954158;28;20073;-65
2023/03/16 10:15:14;;;;;;;;;;;;;;;;;;4938848;28;20005;-65
2023/03/16 10:17:39;;;;;;;;;;;;;;;;;;4941625;28;20105;-65
2023/03/16 10:20:08;;;;;;;;;;;;;;;;;;4958561;28;19988;-63
2023/03/16 10:22:33;;;;;;;;;;;;;;;;;;4929028;28;19919;-64
2023/03/16 10:24:59;;;;;;;;;;;;;;;;;;4968307;28;20407;-65
2023/03/16 10:27:24;;;;;;;;;;;;;;;;;;4938723;28;19929;-64
2023/03/16 10:29:50;;;;;;;;;;;;;;;;;;4969852;28;19926;-63
2023/03/16 10:32:15;;;;;;;;;;;;;;;;;;4968853;28;19922;-66
2023/03/16 10:34:40;;;;;;;;;;;;;;;;;;4966869;28;19980;-67
2023/03/16 10:37:08;;;;;;;;;;;;;;;;;;4952441;28;19969;-64
2023/03/16 10:39:33;;;;;;;;;;;;;;;;;;4942759;28;19918;-64
2023/03/16 10:41:59;;;;;;;;;;;;;;;;;;4937967;28;21621;-64
2023/03/16 10:44:24;;;;;;;;;;;;;;;;;;4937742;28;19933;-63
2023/03/16 10:46:52;;;;;;;;;;;;;;;;;;4937795;28;19921;-65
2023/03/16 10:49:17;;;;;;;;;;;;;;;;;;4968807;28;19975;-65
2023/03/16 10:51:42;;;;;;;;;;;;;;;;;;4956345;28;20230;-65
2023/03/16 10:54:13;;;;;;;;;;;;;;;;;;4970324;28;19921;-65
2023/03/16 10:56:39;;;;;;;;;;;;;;;;;;4969862;28;19991;-64
2023/03/16 10:59:04;;;;;;;;;;;;;;;;;;4971167;28;19918;-64
2023/03/16 11:01:29;;;;;;;;;;;;;;;;;;4970914;28;20453;-65
2023/03/16 11:03:55;;;;;;;;;;;;;;;;;;4968782;28;19924;-64
2023/03/16 11:06:21;;;;;;;;;;;;;;;;;;4957367;28;20362;-65
2023/03/16 11:08:47;;;;;;;;;;;;;;;;;;4968870;28;19947;-67
2023/03/16 11:11:13;;;;;;;;;;;;;;;;;;4967830;28;19932;-64
2023/03/16 11:13:39;;;;;;;;;;;;;;;;;;4957759;28;20010;-65
2023/03/16 11:16:07;;;;;;;;;;;;;;;;;;4960480;28;19922;-65
2023/03/16 11:18:34;;;;;;;;;;;;;;;;;;4970801;28;20282;-65
2023/03/16 11:20:59;;;;;;;;;;;;;;;;;;4957894;28;20365;-65
2023/03/16 11:23:25;;;;;;;;;;;;;;;;;;4955539;28;20352;-65
2023/03/16 11:25:52;;;;;;;;;;;;;;;;;;4957957;28;21565;-68
2023/03/16 11:28:17;;;;;;;;;;;;;;;;;;4956705;28;19929;-68
2023/03/16 11:30:43;;;;;;;;;;;;;;;;;;4971411;28;19922;-64
2023/03/16 11:33:08;;;;;;;;;;;;;;;;;;4959325;28;19918;-64
2023/03/16 11:35:34;;;;;;;;;;;;;;;;;;4971096;28;19926;-64
2023/03/16 11:37:59;;;;;;;;;;;;;;;;;;4972002;28;20341;-63
2023/03/16 11:40:25;;;;;;;;;;;;;;;;;;4942753;28;20424;-65
2023/03/16 11:42:51;;;;;;;;;;;;;;;;;;4939552;28;20433;-65
2023/03/16 11:45:16;;;;;;;;;;;;;;;;;;4939620;28;19997;-63
2023/03/16 11:47:41;;;;;;;;;;;;;;;;;;4969375;28;19926;-64
2023/03/16 11:50:10;;;;;;;;;;;;;;;;;;4966689;28;19922;-62
2023/03/16 11:52:35;;;;;;;;;;;;;;;;;;4939088;28;19936;-63
2023/03/16 11:55:06;;;;;;;;;;;;;;;;;;4935927;28;20317;-64
2023/03/16 11:57:31;;;;;;;;;;;;;;;;;;4954698;28;20188;-64
2023/03/16 11:59:57;;;;;;;;;;;;;;;;;;4936028;28;20101;-64
2023/03/16 12:02:22;;;;;;;;;;;;;;;;;;4942603;28;20338;-64
2023/03/16 12:04:47;;;;;;;;;;;;;;;;;;4967436;28;19923;-63
2023/03/16 12:07:16;;;;;;;;;;;;;;;;;;4935082;28;19946;-64
2023/03/16 12:09:46;;;;;;;;;;;;;;;;;;4949976;28;19933;-66
2023/03/16 12:12:11;;;;;;;;;;;;;;;;;;4937676;28;19984;-66
2023/03/16 12:14:37;;;;;;;;;;;;;;;;;;4935069;28;20465;-64
2023/03/16 12:17:02;;;;;;;;;;;;;;;;;;4967510;28;19937;-67
2023/03/16 12:19:27;;;;;;;;;;;;;;;;;;4952527;28;20493;-65
2023/03/16 12:21:53;;;;;;;;;;;;;;;;;;4935302;28;19933;-65
2023/03/16 12:24:21;;;;;;;;;;;;;;;;;;4948700;28;19929;-64
2023/03/16 12:26:48;;;;;;;;;;;;;;;;;;4934822;28;19922;-65
2023/03/16 12:29:13;;;;;;;;;;;;;;;;;;4937529;28;20005;-65
2023/03/16 12:31:39;;;;;;;;;;;;;;;;;;4943686;28;20305;-64
2023/03/16 12:34:04;;;;;;;;;;;;;;;;;;4937431;28;19921;-63
2023/03/16 12:36:32;;;;;;;;;;;;;;;;;;4938667;28;20221;-64
2023/03/16 12:38:58;;;;;;;;;;;;;;;;;;4964661;28;19930;-66
2023/03/16 12:41:24;;;;;;;;;;;;;;;;;;4951849;28;20362;-64
2023/03/16 12:43:52;;;;;;;;;;;;;;;;;;4966222;28;19957;-64
2023/03/16 12:46:17;;;;;;;;;;;;;;;;;;4967332;28;19926;-67
2023/03/16 12:48:43;;;;;;;;;;;;;;;;;;4948415;28;19929;-65
2023/03/16 12:51:08;;;;;;;;;;;;;;;;;;4960119;28;19926;-67
2023/03/16 12:53:34;;;;;;;;;;;;;;;;;;4935073;28;19927;-66
2023/03/16 12:55:59;;;;;;;;;;;;;;;;;;4931816;28;20013;-65
2023/03/16 12:58:25;;;;;;;;;;;;;;;;;;4950754;28;20298;-65
2023/03/16 13:00:54;;;;;;;;;;;;;;;;;;4965917;28;20555;-64
2023/03/16 13:03:19;;;;;;;;;;;;;;;;;;4967240;28;19922;-64
2023/03/16 13:05:45;;;;;;;;;;;;;;;;;;4968032;28;20587;-64
2023/03/16 13:08:13;;;;;;;;;;;;;;;;;;4925065;28;19920;-64
2023/03/16 13:10:38;;;;;;;;;;;;;;;;;;4936640;28;19945;-63
2023/03/16 13:13:06;;;;;;;;;;;;;;;;;;4937084;28;19926;-65
2023/03/16 13:15:34;;;;;;;;;;;;;;;;;;4936889;28;19922;-65
2023/03/16 13:18:00;;;;;;;;;;;;;;;;;;4948331;28;19926;-65
2023/03/16 13:20:25;;;;;;;;;;;;;;;;;;4939896;28;21413;-66
2023/03/16 13:22:53;;;;;;;;;;;;;;;;;;4957904;28;19922;-65
2023/03/16 13:25:21;;;;;;;;;;;;;;;;;;4965563;28;19919;-65
2023/03/16 13:27:46;;;;;;;;;;;;;;;;;;4938659;28;19929;-64
2023/03/16 13:30:11;;;;;;;;;;;;;;;;;;4934780;28;19923;-65
2023/03/16 13:32:37;;;;;;;;;;;;;;;;;;4966661;28;19923;-66
2023/03/16 13:35:02;;;;;;;;;;;;;;;;;;4934425;28;20501;-66
2023/03/16 13:37:28;;;;;;;;;;;;;;;;;;4935821;28;19922;-65
2023/03/16 13:39:53;;;;;;;;;;;;;;;;;;4938861;28;19922;-64
2023/03/16 13:42:19;;;;;;;;;;;;;;;;;;4943952;28;20608;-65
2023/03/16 13:44:47;;;;;;;;;;;;;;;;;;4964818;28;19985;-64
2023/03/16 13:47:13;;;;;;;;;;;;;;;;;;4951566;28;19989;-65
2023/03/16 13:49:39;;;;;;;;;;;;;;;;;;4935847;28;21773;-66
2023/03/16 13:52:04;;;;;;;;;;;;;;;;;;4937013;28;19926;-66
2023/03/16 13:54:30;;;;;;;;;;;;;;;;;;4934815;28;19922;-65
2023/03/16 13:56:56;;;;;;;;;;;;;;;;;;4967112;28;20253;-67
2023/03/16 13:59:21;;;;;;;;;;;;;;;;;;4936121;28;19926;-66
2023/03/16 14:01:47;;;;;;;;;;;;;;;;;;4967458;28;19954;-65
2023/03/16 14:04:17;;;;;;;;;;;;;;;;;;4964834;28;19965;-65
2023/03/16 14:06:42;;;;;;;;;;;;;;;;;;4949418;28;20063;-66
2023/03/16 14:09:08;;;;;;;;;;;;;;;;;;4933289;28;20321;-67
2023/03/16 14:11:33;;;;;;;;;;;;;;;;;;4963127;28;19926;-65
2023/03/16 14:14:00;;;;;;;;;;;;;;;;;;4936511;28;20577;-65
2023/03/16 14:16:26;;;;;;;;;;;;;;;;;;4938363;28;19929;-67
2023/03/16 14:18:52;;;;;;;;;;;;;;;;;;4937104;28;19922;-66
2023/03/16 14:21:18;;;;;;;;;;;;;;;;;;4950906;28;19919;-67
2023/03/16 14:23:43;;;;;;;;;;;;;;;;;;4938319;28;19930;-64
2023/03/16 14:26:08;;;;;;;;;;;;;;;;;;4935435;28;19919;-65
2023/03/16 14:28:34;;;;;;;;;;;;;;;;;;4924296;28;19922;-66
2023/03/16 14:30:59;;;;;;;;;;;;;;;;;;4965798;28;19946;-66
2023/03/16 14:33:25;;;;;;;;;;;;;;;;;;4947357;28;20438;-65
2023/03/16 14:35:50;;;;;;;;;;;;;;;;;;4949305;28;20376;-66
2023/03/16 14:38:15;;;;;;;;;;;;;;;;;;4934167;28;20206;-65
2023/03/16 14:40:43;;;;;;;;;;;;;;;;;;4932566;28;20298;-66
2023/03/16 14:43:09;;;;;;;;;;;;;;;;;;4966435;28;19929;-66
2023/03/16 14:45:37;;;;;;;;;;;;;;;;;;4951293;28;19927;-66
2023/03/16 14:48:03;;;;;;;;;;;;;;;;;;4971525;28;20176;-65
2023/03/16 14:50:29;;;;;;;;;;;;;;;;;;4968919;28;20005;-68
2023/03/16 14:52:54;;;;;;;;;;;;;;;;;;4938586;28;19934;-67
2023/03/16 14:55:21;;;;;;;;;;;;;;;;;;4942198;28;19922;-65
2023/03/16 14:57:48;;;;;;;;;;;;;;;;;;4969847;28;19952;-67
2023/03/16 15:00:14;;;;;;;;;;;;;;;;;;4938381;28;20652;-66
2023/03/16 15:02:39;;;;;;;;;;;;;;;;;;4969106;28;19922;-66
2023/03/16 15:05:05;;;;;;;;;;;;;;;;;;4938058;28;19929;-66
2023/03/16 15:07:30;;;;;;;;;;;;;;;;;;4969249;28;20317;-66
2023/03/16 15:09:55;;;;;;;;;;;;;;;;;;4934588;28;20365;-65
2023/03/16 15:12:21;;;;;;;;;;;;;;;;;;4939881;28;19926;-65
2023/03/16 15:17:31;;;;;;;;;;;;;;;;;;4937677;28;19934;-66
2023/03/16 15:19:56;;;;;;;;;;;;;;;;;;4937720;28;19923;-67
2023/03/16 15:22:25;;;;;;;;;;;;;;;;;;4967043;28;19922;-65
2023/03/16 15:24:51;;;;;;;;;;;;;;;;;;4939097;28;19918;-65
2023/03/16 15:27:16;;;;;;;;;;;;;;;;;;4940688;28;19929;-67
2023/03/16 15:29:42;;;;;;;;;;;;;;;;;;4924044;28;19922;-65
2023/03/16 15:32:07;;;;;;;;;;;;;;;;;;4937398;28;20525;-65
2023/03/16 15:34:33;;;;;;;;;;;;;;;;;;4950220;28;19918;-66
2023/03/16 15:36:58;;;;;;;;;;;;;;;;;;4968568;28;19922;-65
2023/03/16 15:39:24;;;;;;;;;;;;;;;;;;4967946;28;20421;-66
2023/03/16 15:41:52;;;;;;;;;;;;;;;;;;4967725;28;19923;-65
2023/03/16 15:44:17;;;;;;;;;;;;;;;;;;4939518;28;19929;-67
2023/03/16 15:46:43;;;;;;;;;;;;;;;;;;4952940;28;19926;-66
2023/03/16 15:49:08;;;;;;;;;;;;;;;;;;4971446;28;19929;-68
2023/03/16 15:51:33;;;;;;;;;;;;;;;;;;4971827;28;20108;-65
2023/03/16 15:54:02;;;;;;;;;;;;;;;;;;4968401;28;20006;-65
2023/03/16 15:56:28;;;;;;;;;;;;;;;;;;4954160;28;20317;-66
2023/03/16 15:58:54;;;;;;;;;;;;;;;;;;4955680;28;19928;-68
2023/03/16 16:01:20;;;;;;;;;;;;;;;;;;4944598;28;19922;-67
2023/03/16 16:03:45;;;;;;;;;;;;;;;;;;4969524;28;20081;-68
2023/03/16 16:06:10;;;;;;;;;;;;;;;;;;4969669;28;20387;-67
2023/03/16 16:08:36;;;;;;;;;;;;;;;;;;4970084;28;19930;-68
2023/03/16 16:11:04;;;;;;;;;;;;;;;;;;4955110;28;19996;-68
2023/03/16 16:13:30;;;;;;;;;;;;;;;;;;4957121;28;19921;-67
2023/03/16 16:15:57;;;;;;;;;;;;;;;;;;4969531;28;20396;-64
2023/03/16 16:18:23;;;;;;;;;;;;;;;;;;4969397;28;19973;-67
2023/03/16 16:20:50;;;;;;;;;;;;;;;;;;4969641;28;19928;-66
2023/03/16 16:23:18;;;;;;;;;;;;;;;;;;4969721;28;19922;-66
2023/03/16 16:25:45;;;;;;;;;;;;;;;;;;4968821;28;19918;-65
2023/03/16 16:28:11;;;;;;;;;;;;;;;;;;4955570;28;20441;-64
2023/03/16 16:30:38;;;;;;;;;;;;;;;;;;4943495;28;19922;-67
2023/03/16 16:33:03;;;;;;;;;;;;;;;;;;4956632;28;20597;-66
2023/03/16 16:35:29;;;;;;;;;;;;;;;;;;4954795;28;20083;-66
2023/03/16 16:37:55;;;;;;;;;;;;;;;;;;4970699;28;20012;-67
2023/03/16 16:40:22;;;;;;;;;;;;;;;;;;4954977;28;19944;-67
2023/03/16 16:42:47;;;;;;;;;;;;;;;;;;4970324;28;19943;-65
2023/03/16 16:45:13;;;;;;;;;;;;;;;;;;4941350;28;21477;-63
2023/03/16 16:47:38;;;;;;;;;;;;;;;;;;4971710;28;19918;-65
2023/03/16 16:50:04;;;;;;;;;;;;;;;;;;4953340;28;19921;-66
2023/03/16 16:52:31;;;;;;;;;;;;;;;;;;4969073;28;20428;-64
2023/03/16 16:54:59;;;;;;;;;;;;;;;;;;4970386;28;19945;-65
2023/03/16 16:57:24;;;;;;;;;;;;;;;;;;4927634;28;20361;-67
2023/03/16 16:59:50;;;;;;;;;;;;;;;;;;4955493;28;20382;-64
2023/03/16 17:02:15;;;;;;;;;;;;;;;;;;4956353;28;20389;-65
2023/03/16 17:04:41;;;;;;;;;;;;;;;;;;4955568;28;19928;-65
2023/03/16 17:07:06;;;;;;;;;;;;;;;;;;4967603;28;19924;-67
2023/03/16 17:09:32;;;;;;;;;;;;;;;;;;4942171;28;20385;-66
2023/03/16 17:12:00;;;;;;;;;;;;;;;;;;4970006;28;19952;-67
2023/03/16 17:14:29;;;;;;;;;;;;;;;;;;4955578;28;20382;-66
2023/03/16 17:16:55;;;;;;;;;;;;;;;;;;4956147;28;19918;-66
2023/03/16 17:19:22;;;;;;;;;;;;;;;;;;4951231;28;19930;-65
2023/03/16 17:21:47;;;;;;;;;;;;;;;;;;4956010;28;19922;-67
2023/03/16 17:24:14;;;;;;;;;;;;;;;;;;4966890;28;19922;-65
2023/03/16 17:26:39;;;;;;;;;;;;;;;;;;4959570;28;19922;-67
2023/03/16 17:29:05;;;;;;;;;;;;;;;;;;4968123;28;19918;-67
2023/03/16 17:31:33;;;;;;;;;;;;;;;;;;4954758;28;19932;-65
2023/03/16 17:34:01;;;;;;;;;;;;;;;;;;4952208;28;19918;-66
2023/03/16 17:36:27;;;;;;;;;;;;;;;;;;4954382;28;20013;-66
2023/03/16 17:38:52;;;;;;;;;;;;;;;;;;4967195;28;19921;-65
2023/03/16 17:41:17;;;;;;;;;;;;;;;;;;4954079;28;19922;-65
2023/03/16 17:43:43;;;;;;;;;;;;;;;;;;4954759;28;19918;-66
2023/03/16 17:46:08;;;;;;;;;;;;;;;;;;4941297;28;19930;-66
2023/03/16 17:48:34;;;;;;;;;;;;;;;;;;4967263;28;19958;-65
2023/03/16 17:50:59;;;;;;;;;;;;;;;;;;4968277;28;20134;-66
2023/03/16 17:53:25;;;;;;;;;;;;;;;;;;4968354;28;20547;-65
2023/03/16 17:55:51;;;;;;;;;;;;;;;;;;4969180;28;19921;-66
2023/03/16 17:58:16;;;;;;;;;;;;;;;;;;4967844;28;20025;-66
2023/03/16 18:00:45;;;;;;;;;;;;;;;;;;4955879;28;20273;-65
2023/03/16 18:03:11;;;;;;;;;;;;;;;;;;4953466;28;20009;-66
2023/03/16 18:05:36;;;;;;;;;;;;;;;;;;4955141;28;21655;-66
2023/03/16 18:08:03;;;;;;;;;;;;;;;;;;4955737;28;19945;-67